createdAt,value
2019-04-30T00:00:57.843Z,31.90
2019-04-30T00:03:43.590Z,33.63
2019-04-30T00:06:19.984Z,34.78
2019-04-30T00:08:57.445Z,35.70
2019-04-30T00:11:32.201Z,38.13
2019-04-30T00:14:07.637Z,56.68
2019-04-30T00:16:45.039Z,45.67
2019-04-30T00:19:20.078Z,39.42
2019-04-30T00:22:00.106Z,36.88
2019-04-30T00:24:32.480Z,35.83
2019-04-30T00:27:08.316Z,31.68
2019-04-30T00:29:45.637Z,32.20
2019-04-30T00:32:20.825Z,33.40
2019-04-30T00:34:57.700Z,34.58
2019-04-30T00:40:07.702Z,33.73
2019-04-30T00:42:45.665Z,32.05
2019-04-30T00:45:20.588Z,33.42
2019-04-30T00:47:56.348Z,34.00
2019-04-30T00:50:33.936Z,32.05
2019-04-30T00:53:12.380Z,32.48
2019-04-30T00:55:48.450Z,32.78
2019-04-30T00:58:29.036Z,32.48
2019-04-30T01:01:16.368Z,33.23
2019-04-30T01:04:08.516Z,30.20
2019-04-30T01:06:48.508Z,30.55
2019-04-30T01:09:26.190Z,31.30
2019-04-30T01:12:05.779Z,33.00
2019-04-30T01:14:41.591Z,32.25
2019-04-30T01:17:18.765Z,31.35
2019-04-30T01:19:55.027Z,31.37
2019-04-30T01:22:35.102Z,46.55
2019-04-30T01:25:13.470Z,39.95
2019-04-30T01:27:50.582Z,45.38
2019-04-30T01:30:28.483Z,34.23
2019-04-30T01:35:40.563Z,33.02
2019-04-30T01:40:52.248Z,31.35
2019-04-30T01:43:33.510Z,36.08
2019-04-30T01:46:13.896Z,36.20
2019-04-30T01:48:50.588Z,61.80
2019-04-30T01:51:29.590Z,54.05
2019-04-30T01:54:09.164Z,33.28
2019-04-30T01:56:55.805Z,26.52
2019-04-30T01:59:35.524Z,51.85
2019-04-30T02:02:12.808Z,30.72
2019-04-30T02:04:49.236Z,29.80
2019-04-30T02:07:25.242Z,27.80
2019-04-30T02:10:00.985Z,23.57
2019-04-30T02:12:41.190Z,25.23
2019-04-30T02:15:16.787Z,26.00
2019-04-30T02:17:52.645Z,29.48
2019-04-30T02:20:28.673Z,35.03
2019-04-30T02:23:06.549Z,30.70
2019-04-30T02:25:42.138Z,27.37
2019-04-30T02:28:19.518Z,35.58
2019-04-30T02:30:55.139Z,27.30
2019-04-30T02:33:33.687Z,31.65
2019-04-30T02:36:10.510Z,33.63
2019-04-30T02:41:31.605Z,29.82
2019-04-30T02:44:09.690Z,26.12
2019-04-30T02:46:46.296Z,27.27
2019-04-30T02:49:23.617Z,27.65
2019-04-30T02:52:03.353Z,28.12
2019-04-30T02:54:52.777Z,29.35
2019-04-30T02:57:29.958Z,31.60
2019-04-30T03:00:20.272Z,43.78
2019-04-30T03:02:56.123Z,45.23
2019-04-30T03:05:34.320Z,54.83
2019-04-30T03:08:25.824Z,30.10
2019-04-30T03:11:03.069Z,41.77
2019-04-30T03:13:42.886Z,33.88
2019-04-30T03:16:20.757Z,31.70
2019-04-30T03:19:00.736Z,32.38
2019-04-30T03:21:43.352Z,32.67
2019-04-30T03:24:20.128Z,27.90
2019-04-30T03:26:59.442Z,30.23
2019-04-30T03:29:34.139Z,28.80
2019-04-30T03:32:13.323Z,28.45
2019-04-30T03:34:51.756Z,32.58
2019-04-30T03:37:25.279Z,31.37
2019-04-30T03:40:00.876Z,32.90
2019-04-30T03:42:39.511Z,32.17
2019-04-30T03:47:50.512Z,34.53
2019-04-30T03:50:32.873Z,38.17
2019-04-30T03:53:06.688Z,38.42
2019-04-30T03:55:42.383Z,34.13
2019-04-30T03:58:21.213Z,35.83
2019-04-30T04:01:03.041Z,36.70
2019-04-30T04:03:42.150Z,34.05
2019-04-30T04:06:29.132Z,33.25
2019-04-30T04:09:21.744Z,35.60
2019-04-30T04:11:55.420Z,34.23
2019-04-30T04:14:32.678Z,36.68
2019-04-30T04:17:09.853Z,35.40
2019-04-30T04:19:45.516Z,34.90
2019-04-30T04:22:22.492Z,32.48
2019-04-30T04:27:34.707Z,34.75
2019-04-30T04:30:13.097Z,36.70
2019-04-30T04:32:50.151Z,36.75
2019-04-30T04:35:25.679Z,38.83
2019-04-30T04:38:01.592Z,39.15
2019-04-30T04:43:16.589Z,37.05
2019-04-30T04:45:55.605Z,36.65
2019-04-30T04:48:31.342Z,39.78
2019-04-30T04:51:14.418Z,37.90
2019-04-30T04:56:19.661Z,39.40
2019-04-30T04:58:55.264Z,40.50
2019-04-30T05:01:32.407Z,39.20
2019-04-30T05:04:13.198Z,34.43
2019-04-30T05:06:49.763Z,39.40
2019-04-30T05:09:28.601Z,39.50
2019-04-30T05:12:08.152Z,37.88
2019-04-30T05:14:59.949Z,39.88
2019-04-30T05:18:02.624Z,38.40
2019-04-30T05:20:39.918Z,42.15
2019-04-30T05:23:21.921Z,41.18
2019-04-30T05:25:59.006Z,43.52
2019-04-30T05:28:44.921Z,44.88
2019-04-30T05:31:22.192Z,44.77
2019-04-30T05:34:00.177Z,43.95
2019-04-30T05:36:54.009Z,43.33
2019-04-30T05:39:33.730Z,43.68
2019-04-30T05:42:11.410Z,46.15
2019-04-30T05:44:50.350Z,45.25
2019-04-30T05:47:26.491Z,44.40
2019-04-30T05:50:02.574Z,43.45
2019-04-30T05:52:41.443Z,47.73
2019-04-30T05:55:19.839Z,47.00
2019-04-30T05:57:56.566Z,47.55
2019-04-30T06:00:32.830Z,50.33
2019-04-30T06:03:09.435Z,49.65
2019-04-30T06:05:49.189Z,51.40
2019-04-30T06:08:30.012Z,52.13
2019-04-30T06:11:09.378Z,52.00
2019-04-30T06:13:49.152Z,50.75
2019-04-30T06:16:27.585Z,52.60
2019-04-30T06:19:04.645Z,52.88
2019-04-30T06:21:51.927Z,51.37
2019-04-30T06:24:36.547Z,50.12
2019-04-30T06:27:12.921Z,51.50
2019-04-30T06:29:49.024Z,50.75
2019-04-30T06:32:25.310Z,52.00
2019-04-30T06:35:05.163Z,55.87
2019-04-30T06:37:48.706Z,53.38
2019-04-30T06:40:22.984Z,50.17
2019-04-30T06:43:00.843Z,53.40
2019-04-30T06:45:38.803Z,51.10
2019-04-30T06:48:19.866Z,49.40
2019-04-30T06:50:58.915Z,51.48
2019-04-30T06:53:35.709Z,52.15
2019-04-30T06:56:12.774Z,52.38
2019-04-30T06:58:52.940Z,53.28
2019-04-30T07:01:33.734Z,52.75
2019-04-30T07:04:10.488Z,51.73
2019-04-30T07:06:46.210Z,52.45
2019-04-30T07:09:39.804Z,55.43
2019-04-30T07:12:27.062Z,56.92
2019-04-30T07:14:59.223Z,54.83
2019-04-30T07:17:35.386Z,53.87
2019-04-30T07:20:12.864Z,50.60
2019-04-30T07:22:52.407Z,52.00
2019-04-30T07:25:28.935Z,49.55
2019-04-30T07:28:06.522Z,55.63
2019-04-30T07:30:42.552Z,53.08
2019-04-30T07:33:22.320Z,55.43
2019-04-30T07:36:03.270Z,55.30
2019-04-30T07:38:51.719Z,55.52
2019-04-30T07:41:20.965Z,52.53
2019-04-30T07:43:56.563Z,56.20
2019-04-30T07:46:35.275Z,53.68
2019-04-30T07:49:13.642Z,57.40
2019-04-30T07:51:52.750Z,61.33
2019-04-30T07:54:34.564Z,57.20
2019-04-30T07:57:22.766Z,55.65
2019-04-30T08:00:09.652Z,56.98
2019-04-30T08:02:45.698Z,55.88
2019-04-30T08:05:29.913Z,58.20
2019-04-30T08:08:20.196Z,58.58
2019-04-30T08:10:44.171Z,59.30
2019-04-30T08:13:24.779Z,57.20
2019-04-30T08:16:00.807Z,58.92
2019-04-30T08:18:40.247Z,58.87
2019-04-30T08:21:19.052Z,62.62
2019-04-30T08:23:54.290Z,62.08
2019-04-30T08:29:17.034Z,63.50
2019-04-30T08:31:54.404Z,61.45
2019-04-30T08:34:31.291Z,62.35
2019-04-30T08:37:17.024Z,64.22
2019-04-30T08:39:53.104Z,69.53
2019-04-30T08:42:33.892Z,62.05
2019-04-30T08:45:11.597Z,61.30
2019-04-30T08:47:50.522Z,66.95
2019-04-30T08:50:30.982Z,66.17
2019-04-30T08:53:07.752Z,58.17
2019-04-30T08:55:44.680Z,63.95
2019-04-30T08:58:20.588Z,64.23
2019-04-30T09:01:01.344Z,64.82
2019-04-30T09:03:41.022Z,60.35
2019-04-30T09:06:19.415Z,58.45
2019-04-30T09:08:54.460Z,55.63
2019-04-30T09:11:38.554Z,100.70
2019-04-30T09:14:08.760Z,68.55
2019-04-30T09:16:49.473Z,88.90
2019-04-30T09:19:26.218Z,70.70
2019-04-30T09:22:12.370Z,52.30
2019-04-30T09:24:40.495Z,56.08
2019-04-30T09:27:16.339Z,54.88
2019-04-30T09:29:52.539Z,52.60
2019-04-30T09:32:29.145Z,57.27
2019-04-30T09:35:06.584Z,58.10
2019-04-30T09:37:42.422Z,51.30
2019-04-30T09:40:21.229Z,46.48
2019-04-30T09:42:56.204Z,41.70
2019-04-30T09:45:33.310Z,42.62
2019-04-30T09:50:49.617Z,44.18
2019-04-30T09:53:31.325Z,75.25
2019-04-30T09:56:07.111Z,85.40
2019-04-30T09:58:44.364Z,68.65
2019-04-30T10:01:31.860Z,53.73
2019-04-30T10:04:10.967Z,67.78
2019-04-30T10:06:49.944Z,64.10
2019-04-30T10:09:25.690Z,62.00
2019-04-30T10:12:09.546Z,72.03
2019-04-30T10:14:49.485Z,68.05
2019-04-30T10:17:45.950Z,60.80
2019-04-30T10:20:22.798Z,55.43
2019-04-30T10:25:35.212Z,53.68
2019-04-30T10:28:12.162Z,57.85
2019-04-30T10:33:29.909Z,62.35
2019-04-30T10:36:07.143Z,69.20
2019-04-30T10:38:42.718Z,62.60
2019-04-30T10:41:18.816Z,63.17
2019-04-30T10:43:55.084Z,70.87
2019-04-30T10:46:32.531Z,88.72
2019-04-30T10:49:09.064Z,76.42
2019-04-30T10:51:47.325Z,86.22
2019-04-30T10:54:26.483Z,64.05
2019-04-30T10:57:02.132Z,69.07
2019-04-30T10:59:37.901Z,65.32
2019-04-30T11:02:14.070Z,57.58
2019-04-30T11:04:51.387Z,55.83
2019-04-30T11:07:31.115Z,65.65
2019-04-30T11:10:09.308Z,74.32
2019-04-30T11:12:47.152Z,86.28
2019-04-30T11:15:23.303Z,74.70
2019-04-30T11:18:05.231Z,70.05
2019-04-30T11:20:50.303Z,77.62
2019-04-30T11:23:26.481Z,106.15
2019-04-30T11:26:02.983Z,87.50
2019-04-30T11:28:49.452Z,71.33
2019-04-30T11:31:27.197Z,62.97
2019-04-30T11:34:06.181Z,68.00
2019-04-30T11:36:43.162Z,65.40
2019-04-30T11:39:20.471Z,63.35
2019-04-30T11:41:56.068Z,71.60
2019-04-30T11:44:33.940Z,69.77
2019-04-30T11:47:30.360Z,66.97
2019-04-30T11:50:08.118Z,78.60
2019-04-30T11:52:44.375Z,69.90
2019-04-30T11:55:22.501Z,62.38
2019-04-30T11:58:00.808Z,61.08
2019-04-30T12:03:39.383Z,65.37
2019-04-30T12:06:24.455Z,65.37
2019-04-30T12:09:08.973Z,69.32
2019-04-30T12:11:50.651Z,113.85
2019-04-30T12:14:29.718Z,132.90
2019-04-30T12:17:04.823Z,85.05
2019-04-30T12:19:51.544Z,95.83
2019-04-30T12:22:29.595Z,91.37
2019-04-30T12:25:18.731Z,90.03
2019-04-30T12:30:54.536Z,76.42
2019-04-30T12:33:32.234Z,84.75
2019-04-30T12:36:09.447Z,82.40
2019-04-30T12:38:46.957Z,71.82
2019-04-30T12:41:25.793Z,68.10
2019-04-30T12:44:12.720Z,69.07
2019-04-30T12:46:50.406Z,74.40
2019-04-30T12:49:28.812Z,73.78
2019-04-30T12:52:16.077Z,74.47
2019-04-30T12:55:14.458Z,70.57
2019-04-30T12:57:58.740Z,69.85
2019-04-30T13:00:39.118Z,67.32
2019-04-30T13:06:03.205Z,70.45
2019-04-30T13:11:36.249Z,74.80
2019-04-30T13:17:03.929Z,72.08
2019-04-30T13:19:42.925Z,71.53
2019-04-30T13:22:21.929Z,74.42
2019-04-30T13:25:00.703Z,81.87
2019-04-30T13:27:41.801Z,82.62
2019-04-30T13:30:23.217Z,76.67
2019-04-30T13:33:04.919Z,74.35
2019-04-30T13:35:43.594Z,73.42
2019-04-30T13:38:30.928Z,75.65
2019-04-30T13:41:11.841Z,72.45
2019-04-30T13:43:51.675Z,68.25
2019-04-30T13:46:28.481Z,72.70
2019-04-30T13:49:04.867Z,69.32
2019-04-30T13:51:45.151Z,72.12
2019-04-30T13:54:31.262Z,66.22
2019-04-30T13:57:15.358Z,71.57
2019-04-30T13:59:58.654Z,79.00
2019-04-30T14:02:36.491Z,72.20
2019-04-30T14:05:16.546Z,68.57
2019-04-30T14:08:02.577Z,75.55
2019-04-30T14:10:43.582Z,72.17
2019-04-30T14:13:30.978Z,68.83
2019-04-30T14:16:13.185Z,73.70
2019-04-30T14:18:52.986Z,73.67
2019-04-30T14:21:35.407Z,73.25
2019-04-30T14:24:24.081Z,71.87
2019-04-30T14:27:16.267Z,75.25
2019-04-30T14:29:55.942Z,71.20
2019-04-30T14:35:28.727Z,74.53
2019-04-30T14:38:11.681Z,70.90
2019-04-30T14:40:56.281Z,68.20
2019-04-30T14:43:40.184Z,69.45
2019-04-30T14:46:20.860Z,68.87
2019-04-30T14:49:14.618Z,67.20
2019-04-30T14:51:52.249Z,66.57
2019-04-30T14:54:59.627Z,72.65
2019-04-30T14:57:39.256Z,66.82
2019-04-30T15:00:32.496Z,71.00
2019-04-30T15:03:20.262Z,70.55
2019-04-30T15:06:15.217Z,70.22
2019-04-30T15:08:52.968Z,72.72
2019-04-30T15:11:41.636Z,70.65
2019-04-30T15:14:29.901Z,66.33
2019-04-30T15:17:10.826Z,72.17
2019-04-30T15:19:59.241Z,72.62
2019-04-30T15:22:45.036Z,73.55
2019-04-30T15:28:19.171Z,73.65
2019-04-30T15:31:18.465Z,76.72
2019-04-30T15:34:05.164Z,73.62
2019-04-30T15:36:44.990Z,73.72
2019-04-30T15:39:36.285Z,76.70
2019-04-30T15:42:30.661Z,72.20
2019-04-30T15:45:21.033Z,73.92
2019-04-30T15:47:58.433Z,73.62
2019-04-30T15:50:43.814Z,69.95
2019-04-30T15:53:25.258Z,66.45
2019-04-30T15:56:03.152Z,67.12
2019-04-30T15:58:43.072Z,72.60
2019-04-30T16:01:20.951Z,69.47
2019-04-30T16:04:04.236Z,72.30
2019-04-30T16:06:41.543Z,68.83
2019-04-30T16:09:23.072Z,69.30
2019-04-30T16:12:07.097Z,71.87
2019-04-30T16:14:47.372Z,72.00
2019-04-30T16:17:24.693Z,71.45
2019-04-30T16:20:10.467Z,70.50
2019-04-30T16:22:51.172Z,70.83
2019-04-30T16:25:27.103Z,70.45
2019-04-30T16:28:19.578Z,71.28
2019-04-30T16:30:58.009Z,69.62
2019-04-30T16:33:39.356Z,73.47
2019-04-30T16:36:16.435Z,73.12
2019-04-30T16:39:11.535Z,70.47
2019-04-30T16:41:48.896Z,73.15
2019-04-30T16:44:26.036Z,73.55
2019-04-30T16:47:13.439Z,74.20
2019-04-30T16:49:54.583Z,72.47
2019-04-30T16:52:33.110Z,69.80
2019-04-30T16:55:15.879Z,74.20
2019-04-30T16:57:53.902Z,72.50
2019-04-30T17:00:30.836Z,72.15
2019-04-30T17:03:21.497Z,71.60
2019-04-30T17:06:01.123Z,74.85
2019-04-30T17:08:42.690Z,72.00
2019-04-30T17:11:22.384Z,74.62
2019-04-30T17:14:03.236Z,71.97
2019-04-30T17:16:39.276Z,73.95
2019-04-30T17:19:16.606Z,71.65
2019-04-30T17:21:57.906Z,70.10
2019-04-30T17:24:39.372Z,72.60
2019-04-30T17:27:21.573Z,70.40
2019-04-30T17:29:55.136Z,65.60
2019-04-30T17:32:31.316Z,66.95
2019-04-30T17:35:12.053Z,66.92
2019-04-30T17:37:52.095Z,64.62
2019-04-30T17:40:29.279Z,67.55
2019-04-30T17:43:08.173Z,64.27
2019-04-30T17:45:51.596Z,65.35
2019-04-30T17:48:30.905Z,65.95
2019-04-30T17:51:09.449Z,64.25
2019-04-30T17:53:45.887Z,62.58
2019-04-30T17:56:21.814Z,63.85
2019-04-30T17:59:00.339Z,62.33
2019-04-30T18:01:40.896Z,61.75
2019-04-30T18:04:18.590Z,62.83
2019-04-30T18:06:53.487Z,61.75
2019-04-30T18:09:31.025Z,62.38
2019-04-30T18:12:09.412Z,62.83
2019-04-30T18:14:45.543Z,64.32
2019-04-30T18:17:22.767Z,58.75
2019-04-30T18:20:01.004Z,61.42
2019-04-30T18:22:49.811Z,61.83
2019-04-30T18:25:33.690Z,62.80
2019-04-30T18:28:11.572Z,59.58
2019-04-30T18:30:51.576Z,59.95
2019-04-30T18:33:29.395Z,61.70
2019-04-30T18:36:05.614Z,61.53
2019-04-30T18:38:42.508Z,58.13
2019-04-30T18:41:19.357Z,59.00
2019-04-30T18:46:29.282Z,55.50
2019-04-30T18:49:04.818Z,56.83
2019-04-30T18:51:42.667Z,55.12
2019-04-30T18:54:24.878Z,55.00
2019-04-30T18:57:03.757Z,52.70
2019-04-30T18:59:41.209Z,54.48
2019-04-30T19:02:19.007Z,54.77
2019-04-30T19:04:56.338Z,55.23
2019-04-30T19:10:25.569Z,52.50
2019-04-30T19:13:03.875Z,53.63
2019-04-30T19:16:17.920Z,53.80
2019-04-30T19:18:36.064Z,54.53
2019-04-30T19:21:14.521Z,54.85
2019-04-30T19:23:50.528Z,53.60
2019-04-30T19:26:25.892Z,54.08
2019-04-30T19:29:02.034Z,53.15
2019-04-30T19:31:39.450Z,52.97
2019-04-30T19:34:16.907Z,54.42
2019-04-30T19:36:54.429Z,53.78
2019-04-30T19:39:34.537Z,52.90
2019-04-30T19:42:09.980Z,55.23
2019-04-30T19:44:57.219Z,55.60
2019-04-30T19:47:23.912Z,53.80
2019-04-30T19:50:00.649Z,53.08
2019-04-30T19:52:39.117Z,53.87
2019-04-30T19:57:51.046Z,53.13
2019-04-30T20:00:31.052Z,55.45
2019-04-30T20:03:08.871Z,53.13
2019-04-30T20:05:49.884Z,54.50
2019-04-30T20:08:25.671Z,54.65
2019-04-30T20:11:02.961Z,53.73
2019-04-30T20:13:40.457Z,53.85
2019-04-30T20:16:16.252Z,53.52
2019-04-30T20:18:53.060Z,50.63
2019-04-30T20:21:44.975Z,52.90
2019-04-30T20:24:07.311Z,49.75
2019-04-30T20:29:18.661Z,50.92
2019-04-30T20:31:55.360Z,52.73
2019-04-30T20:34:32.317Z,51.08
2019-04-30T20:37:09.381Z,56.95
2019-04-30T20:42:40.007Z,56.85
2019-04-30T20:45:13.367Z,52.80
2019-04-30T20:47:49.622Z,55.15
2019-04-30T20:50:24.702Z,55.90
2019-04-30T20:53:00.400Z,57.53
2019-04-30T20:55:35.963Z,57.63
2019-04-30T20:58:11.168Z,55.33
2019-04-30T21:00:59.841Z,55.85
2019-04-30T21:03:24.440Z,56.50
2019-04-30T21:06:00.636Z,55.25
2019-04-30T21:08:36.071Z,54.73
2019-04-30T21:11:11.484Z,57.33
2019-04-30T21:13:46.730Z,55.45
2019-04-30T21:16:22.449Z,54.13
2019-04-30T21:19:00.262Z,54.93
2019-04-30T21:21:35.379Z,54.63
2019-04-30T21:24:10.655Z,56.18
2019-04-30T21:26:46.628Z,56.37
2019-04-30T21:29:22.234Z,56.45
2019-04-30T21:32:01.156Z,58.73
2019-04-30T21:34:40.834Z,58.95
2019-04-30T21:37:16.482Z,59.27
2019-04-30T21:39:52.295Z,58.08
2019-04-30T21:42:27.419Z,55.67
2019-04-30T21:45:03.576Z,54.88
2019-04-30T21:47:38.978Z,57.45
2019-04-30T21:50:14.694Z,55.88
2019-04-30T21:52:50.517Z,55.58
2019-04-30T21:55:25.805Z,51.10
2019-04-30T21:58:02.925Z,52.75
2019-04-30T22:00:39.832Z,55.58
2019-04-30T22:03:16.321Z,56.88
2019-04-30T22:05:51.687Z,52.95
2019-04-30T22:08:28.926Z,53.58
2019-04-30T22:11:04.544Z,53.08
2019-04-30T22:13:42.853Z,51.85
2019-04-30T22:16:18.501Z,54.98
2019-04-30T22:18:52.832Z,51.23
2019-04-30T22:21:30.364Z,53.48
2019-04-30T22:24:07.373Z,52.70
2019-04-30T22:26:44.417Z,53.95
2019-04-30T22:29:36.443Z,55.28
2019-04-30T22:32:00.930Z,52.78
2019-04-30T22:34:36.438Z,54.70
2019-04-30T22:37:11.939Z,56.60
2019-04-30T22:39:54.018Z,53.58
2019-04-30T22:42:36.838Z,53.33
2019-04-30T22:45:13.507Z,55.10
2019-04-30T22:47:50.399Z,54.40
2019-04-30T22:50:25.049Z,53.02
2019-04-30T22:53:00.758Z,53.52
2019-04-30T22:55:35.855Z,53.17
2019-04-30T22:58:11.273Z,52.25
2019-04-30T23:00:47.516Z,53.55
2019-04-30T23:03:27.194Z,54.15
2019-04-30T23:06:12.819Z,57.05
2019-04-30T23:08:48.478Z,53.48
2019-04-30T23:11:25.901Z,53.23
2019-04-30T23:14:01.385Z,55.25
2019-04-30T23:16:37.075Z,52.78
2019-04-30T23:19:12.472Z,56.50
2019-04-30T23:21:47.659Z,52.73
2019-04-30T23:24:25.114Z,52.73
2019-04-30T23:27:00.791Z,54.30
2019-04-30T23:29:38.661Z,55.40
2019-04-30T23:32:13.862Z,53.28
2019-04-30T23:34:49.513Z,52.78
2019-04-30T23:37:25.235Z,51.58
2019-04-30T23:40:01.866Z,51.55
2019-04-30T23:42:37.465Z,57.23
2019-04-30T23:45:13.494Z,55.05
2019-04-30T23:47:50.861Z,54.05
2019-04-30T23:50:27.640Z,51.58
2019-04-30T23:53:02.807Z,52.53
2019-04-30T23:55:38.400Z,55.73
2019-04-30T23:58:13.536Z,50.80
